Time;durP1;ratioP1;P1;durP2;ratioP2;P2;SDS_P1;SDS_P2;PMS_P1;PMS_P2;Temp;Humidity;BMP_temperature;BMP_pressure;BME280_temperature;BME280_humidity;BME280_pressure;Samples;Min_cycle;Max_cycle;Signal;HPM_P1;HPM_P2
2023/04/30 00:02:10;;;;;;;18.17;5.70;;;9.50;99.90;;;;;;5072849;28;20073;-36
2023/04/30 00:04:35;;;;;;;11.80;5.28;;;9.40;99.90;;;;;;5072597;28;20510;-39
2023/04/30 00:07:01;;;;;;;10.57;5.75;;;9.40;99.90;;;;;;5072682;28;20028;-41
2023/04/30 00:09:27;;;;;;;15.60;5.50;;;9.40;99.90;;;;;;5072622;28;20043;-41
2023/04/30 00:11:52;;;;;;;10.57;5.35;;;9.30;99.90;;;;;;5072588;28;20441;-37
2023/04/30 00:14:18;;;;;;;9.73;4.13;;;9.30;99.90;;;;;;5072495;28;20435;-37
2023/04/30 00:16:44;;;;;;;13.65;4.93;;;9.30;99.90;;;;;;5072806;28;20041;-39
2023/04/30 00:19:09;;;;;;;8.38;5.38;;;9.20;99.90;;;;;;5072488;28;20025;-37
2023/04/30 00:21:35;;;;;;;11.32;5.63;;;9.10;99.90;;;;;;5073803;28;20386;-38
2023/04/30 00:24:01;;;;;;;10.07;4.78;;;9.10;99.90;;;;;;5076474;28;20043;-35
2023/04/30 00:26:27;;;;;;;18.10;5.75;;;9.10;99.90;;;;;;5076688;28;20048;-39
2023/04/30 00:28:52;;;;;;;10.00;5.35;;;9.10;99.90;;;;;;5077745;28;20059;-36
2023/04/30 00:31:18;;;;;;;12.27;5.40;;;9.10;99.90;;;;;;5076392;28;20029;-40
2023/04/30 00:33:45;;;;;;;8.32;5.07;;;9.10;99.90;;;;;;5076905;28;20035;-35
2023/04/30 00:36:11;;;;;;;8.57;5.43;;;9.10;99.90;;;;;;5085827;28;20032;-37
2023/04/30 00:38:37;;;;;;;9.20;4.63;;;9.10;99.90;;;;;;5076546;28;20447;-37
2023/04/30 00:41:03;;;;;;;13.38;5.90;;;9.00;99.90;;;;;;5076103;28;20085;-38
2023/04/30 00:43:29;;;;;;;10.32;5.40;;;9.00;99.90;;;;;;5076013;28;20032;-36
2023/04/30 00:45:54;;;;;;;10.68;5.75;;;9.00;99.90;;;;;;5075890;28;20449;-41
2023/04/30 00:48:20;;;;;;;11.52;5.25;;;8.90;99.90;;;;;;5076289;28;20381;-38
2023/04/30 00:50:46;;;;;;;10.57;5.70;;;8.90;99.90;;;;;;5075710;28;20055;-36
2023/04/30 00:53:12;;;;;;;10.13;4.90;;;8.90;99.90;;;;;;5075940;28;20078;-38
2023/04/30 00:55:40;;;;;;;13.82;5.78;;;8.90;99.90;;;;;;5075755;28;20485;-35
2023/04/30 00:58:06;;;;;;;8.88;5.25;;;8.90;99.90;;;;;;5076088;28;20105;-37
2023/04/30 01:00:33;;;;;;;13.93;5.78;;;8.90;99.90;;;;;;5075745;28;20028;-39
2023/04/30 01:02:59;;;;;;;16.00;6.75;;;8.80;99.90;;;;;;5075687;28;20503;-38
2023/04/30 01:05:25;;;;;;;16.13;5.85;;;8.70;99.90;;;;;;5074696;28;20500;-42
2023/04/30 01:07:53;;;;;;;21.15;6.57;;;8.70;99.90;;;;;;5075751;28;20541;-41
2023/04/30 01:10:21;;;;;;;15.55;6.70;;;8.70;99.90;;;;;;5075391;28;20090;-42
2023/04/30 01:13:14;;;;;;;12.35;6.15;;;8.70;99.90;;;;;;5075838;28;20546;-41
2023/04/30 01:16:00;;;;;;;13.52;5.88;;;8.70;99.90;;;;;;5075469;28;20078;-42
2023/04/30 01:18:39;;;;;;;16.30;5.63;;;8.70;99.90;;;;;;5075497;28;20037;-38
2023/04/30 01:21:06;;;;;;;12.77;6.03;;;8.70;99.90;;;;;;5075607;28;20513;-40
2023/04/30 01:23:34;;;;;;;12.50;5.78;;;8.70;99.90;;;;;;5075297;28;20367;-42
2023/04/30 01:26:51;;;;;;;11.65;6.00;;;8.70;99.90;;;;;;5075636;28;20500;-41
2023/04/30 01:29:19;;;;;;;12.25;5.95;;;8.70;99.90;;;;;;5075305;28;20147;-39
2023/04/30 01:31:45;;;;;;;15.68;6.55;;;8.70;99.90;;;;;;5074772;28;20025;-38
2023/04/30 01:34:11;;;;;;;15.45;6.93;;;8.60;99.90;;;;;;5075155;28;20393;-39
2023/04/30 01:37:07;;;;;;;11.15;6.05;;;8.60;99.90;;;;;;5075095;28;20070;-36
2023/04/30 01:40:04;;;;;;;8.23;5.60;;;8.60;99.90;;;;;;5075212;28;20483;-34
2023/04/30 01:42:39;;;;;;;12.93;6.35;;;8.50;99.90;;;;;;5075056;28;20032;-40
2023/04/30 01:45:42;;;;;;;13.30;5.65;;;8.50;99.90;;;;;;5074839;28;20611;-39
2023/04/30 01:48:28;;;;;;;13.38;6.07;;;8.60;99.90;;;;;;5074790;28;20544;-37
2023/04/30 01:51:06;;;;;;;14.10;6.38;;;8.50;99.90;;;;;;5074872;28;20036;-40
2023/04/30 01:53:42;;;;;;;11.30;6.35;;;8.50;99.90;;;;;;5074662;28;20485;-38
2023/04/30 01:56:21;;;;;;;15.20;7.03;;;8.60;99.90;;;;;;5075009;28;20461;-38
2023/04/30 01:58:48;;;;;;;11.73;5.80;;;8.50;99.90;;;;;;5074948;28;20028;-39
2023/04/30 02:01:26;;;;;;;20.70;7.05;;;8.50;99.90;;;;;;5074817;28;20497;-39
2023/04/30 02:03:52;;;;;;;12.95;6.88;;;8.60;99.90;;;;;;5074643;28;20547;-36
2023/04/30 02:06:17;;;;;;;13.77;7.32;;;8.60;99.90;;;;;;5074556;28;20033;-37
2023/04/30 02:08:43;;;;;;;14.98;7.45;;;8.60;99.90;;;;;;5074485;28;20029;-39
2023/04/30 02:11:09;;;;;;;19.80;7.05;;;8.60;99.90;;;;;;5074316;28;20486;-38
2023/04/30 02:13:35;;;;;;;18.13;7.38;;;8.60;99.90;;;;;;5074386;28;20033;-37
2023/04/30 02:16:00;;;;;;;15.55;6.20;;;8.50;99.90;;;;;;5074248;28;20073;-37
2023/04/30 02:18:26;;;;;;;16.50;6.90;;;8.50;99.90;;;;;;5074339;28;20028;-38
2023/04/30 02:20:52;;;;;;;12.23;6.90;;;8.40;99.90;;;;;;5074209;28;20035;-34
2023/04/30 02:23:17;;;;;;;16.17;7.47;;;8.40;99.90;;;;;;5074188;28;20439;-39
2023/04/30 02:25:43;;;;;;;20.40;6.82;;;8.40;99.90;;;;;;5074167;28;20064;-37
2023/04/30 02:28:09;;;;;;;14.90;6.88;;;8.30;99.90;;;;;;5074026;28;20043;-38
2023/04/30 02:30:34;;;;;;;11.55;5.97;;;8.30;99.90;;;;;;5074053;28;20104;-38
2023/04/30 02:33:02;;;;;;;17.05;7.30;;;8.30;99.90;;;;;;5074035;28;20032;-38
2023/04/30 02:35:27;;;;;;;13.63;6.47;;;8.30;99.90;;;;;;5072617;28;20466;-34
2023/04/30 02:37:53;;;;;;;14.15;6.15;;;8.30;99.90;;;;;;5074214;28;20058;-35
2023/04/30 02:40:19;;;;;;;14.57;6.43;;;8.30;99.90;;;;;;5073847;28;20393;-38
2023/04/30 02:42:45;;;;;;;13.07;6.28;;;8.30;99.90;;;;;;5073777;28;20508;-37
2023/04/30 02:45:10;;;;;;;14.55;6.32;;;8.20;99.90;;;;;;5072625;28;20067;-38
2023/04/30 02:47:36;;;;;;;14.02;6.65;;;8.20;99.90;;;;;;5073715;28;20028;-39
2023/04/30 02:50:01;;;;;;;13.45;5.88;;;8.20;99.90;;;;;;5073719;28;20036;-39
2023/04/30 02:52:27;;;;;;;9.48;5.72;;;8.20;99.90;;;;;;5073516;28;20086;-39
2023/04/30 02:54:53;;;;;;;13.68;6.60;;;8.20;99.90;;;;;;5073417;28;20089;-38
2023/04/30 02:57:18;;;;;;;13.80;6.68;;;8.20;99.90;;;;;;5073528;28;20427;-36
2023/04/30 02:59:44;;;;;;;11.35;5.85;;;8.20;99.90;;;;;;5073483;28;20036;-36
2023/04/30 03:02:11;;;;;;;9.85;5.95;;;8.20;99.90;;;;;;5073281;28;20489;-39
2023/04/30 03:04:37;;;;;;;9.43;5.55;;;8.20;99.90;;;;;;5072056;28;20031;-38
2023/04/30 03:07:03;;;;;;;12.50;5.70;;;8.10;99.90;;;;;;5073535;28;20028;-36
2023/04/30 03:09:31;;;;;;;12.55;6.05;;;8.10;99.90;;;;;;5073469;28;20036;-39
2023/04/30 03:11:56;;;;;;;11.75;6.40;;;8.10;99.90;;;;;;5073356;28;20032;-38
2023/04/30 03:14:22;;;;;;;16.55;6.28;;;8.10;99.90;;;;;;5073210;28;20035;-39
2023/04/30 03:16:48;;;;;;;12.27;6.03;;;8.10;99.90;;;;;;5073241;28;20032;-37
2023/04/30 03:19:13;;;;;;;11.25;6.25;;;8.10;99.90;;;;;;5073433;28;20036;-39
2023/04/30 03:21:40;;;;;;;8.77;5.30;;;8.10;99.90;;;;;;5073191;28;20086;-38
2023/04/30 03:24:05;;;;;;;11.20;6.30;;;8.10;99.90;;;;;;5073130;28;20503;-36
2023/04/30 03:26:31;;;;;;;14.05;6.55;;;8.00;99.90;;;;;;5073112;28;20028;-39
2023/04/30 03:28:57;;;;;;;13.25;5.60;;;8.00;99.90;;;;;;5073040;28;20119;-39
2023/04/30 03:31:22;;;;;;;10.45;5.38;;;8.00;99.90;;;;;;5071370;28;20044;-39
2023/04/30 03:33:48;;;;;;;11.80;5.55;;;8.00;99.90;;;;;;5073319;28;20469;-38
2023/04/30 03:36:14;;;;;;;11.30;5.65;;;7.90;99.90;;;;;;5072846;28;20396;-37
2023/04/30 03:38:41;;;;;;;16.55;6.32;;;7.90;99.90;;;;;;5071669;28;20495;-37
2023/04/30 03:41:06;;;;;;;10.85;5.30;;;7.90;99.90;;;;;;5072698;28;20032;-38
2023/04/30 03:43:32;;;;;;;10.73;4.72;;;7.90;99.90;;;;;;5072458;28;20488;-40
2023/04/30 03:45:58;;;;;;;7.70;5.10;;;7.90;99.90;;;;;;5073106;28;20388;-38
2023/04/30 03:48:24;;;;;;;10.27;5.20;;;7.90;99.90;;;;;;5071529;28;20397;-36
2023/04/30 03:50:49;;;;;;;8.63;5.15;;;7.90;99.90;;;;;;5073362;28;20034;-39
2023/04/30 03:53:15;;;;;;;8.35;5.15;;;7.90;99.90;;;;;;5072795;28;20393;-38
2023/04/30 03:55:41;;;;;;;11.60;5.18;;;8.00;99.90;;;;;;5072468;28;20081;-37
2023/04/30 03:58:07;;;;;;;13.10;5.40;;;8.00;99.90;;;;;;5072929;28;20485;-38
2023/04/30 04:00:33;;;;;;;10.55;5.53;;;8.10;99.90;;;;;;5072672;28;20024;-38
2023/04/30 04:02:59;;;;;;;15.00;4.63;;;8.10;99.90;;;;;;5072248;28;20523;-39
2023/04/30 04:05:25;;;;;;;10.02;5.05;;;8.20;99.90;;;;;;5071263;28;20052;-37
2023/04/30 04:07:50;;;;;;;13.95;4.75;;;8.10;99.90;;;;;;5072897;28;20028;-38
2023/04/30 04:10:16;;;;;;;10.38;4.80;;;7.90;99.90;;;;;;5072576;28;20393;-38
2023/04/30 04:12:42;;;;;;;8.55;4.63;;;7.90;99.90;;;;;;5072299;28;20115;-40
2023/04/30 04:15:08;;;;;;;8.77;4.65;;;7.90;99.90;;;;;;5072490;28;20063;-37
2023/04/30 04:17:34;;;;;;;10.38;4.60;;;7.80;99.90;;;;;;5072829;28;20536;-39
2023/04/30 04:19:59;;;;;;;9.35;4.15;;;7.90;99.90;;;;;;5072434;28;20031;-36
2023/04/30 04:22:25;;;;;;;8.20;4.80;;;7.80;99.90;;;;;;5072310;28;20040;-38
2023/04/30 04:24:51;;;;;;;6.75;4.20;;;7.90;99.90;;;;;;5072522;28;20489;-38
2023/04/30 04:27:16;;;;;;;8.02;5.05;;;7.90;99.90;;;;;;5072662;28;20059;-36
2023/04/30 04:29:43;;;;;;;5.88;3.85;;;7.90;99.90;;;;;;5072272;28;20572;-39
2023/04/30 04:32:09;;;;;;;6.28;4.13;;;7.90;99.90;;;;;;5072708;28;20381;-36
2023/04/30 04:34:34;;;;;;;10.77;5.03;;;7.90;99.90;;;;;;5072503;28;20040;-41
2023/04/30 04:37:00;;;;;;;8.52;4.65;;;8.00;99.90;;;;;;5072318;28;20100;-40
2023/04/30 04:39:26;;;;;;;10.15;5.07;;;8.00;99.90;;;;;;5072283;28;20029;-40
2023/04/30 04:41:52;;;;;;;8.68;4.55;;;8.10;99.90;;;;;;5072272;28;20020;-38
2023/04/30 04:44:18;;;;;;;12.05;4.28;;;8.20;99.90;;;;;;5072018;28;20382;-38
2023/04/30 04:46:44;;;;;;;14.52;4.20;;;8.10;99.90;;;;;;5072179;28;20086;-39
2023/04/30 04:49:11;;;;;;;6.25;4.47;;;8.20;99.90;;;;;;5072229;28;20021;-37
2023/04/30 04:51:38;;;;;;;11.20;4.40;;;8.20;99.90;;;;;;5072350;28;20435;-37
2023/04/30 04:54:04;;;;;;;8.38;3.95;;;8.30;99.90;;;;;;5071983;28;20021;-39
2023/04/30 04:56:30;;;;;;;7.68;4.65;;;8.30;99.90;;;;;;5071992;28;20024;-39
2023/04/30 04:58:55;;;;;;;8.52;4.30;;;8.40;99.90;;;;;;5072172;28;20024;-37
2023/04/30 05:01:21;;;;;;;10.25;4.03;;;8.40;99.90;;;;;;5072228;28;20025;-41
2023/04/30 05:03:47;;;;;;;13.80;5.28;;;8.40;99.90;;;;;;5072388;28;20016;-38
2023/04/30 05:06:13;;;;;;;8.15;4.65;;;8.50;99.90;;;;;;5072030;28;20029;-40
2023/04/30 05:08:39;;;;;;;7.70;4.43;;;8.50;99.90;;;;;;5074952;28;20115;-41
2023/04/30 05:11:04;;;;;;;9.55;4.88;;;8.60;99.90;;;;;;5075642;28;20086;-40
2023/04/30 05:13:30;;;;;;;7.82;4.53;;;8.60;99.90;;;;;;5075749;28;20032;-39
2023/04/30 05:15:55;;;;;;;10.15;4.53;;;8.70;99.90;;;;;;5075478;28;20032;-35
2023/04/30 05:18:21;;;;;;;8.65;4.93;;;8.70;99.90;;;;;;5075532;28;20122;-39
2023/04/30 05:20:47;;;;;;;5.88;3.95;;;8.80;99.90;;;;;;5075438;28;20020;-36
2023/04/30 05:23:13;;;;;;;10.20;4.30;;;8.90;99.90;;;;;;5075670;28;20028;-39
2023/04/30 05:25:38;;;;;;;6.70;3.95;;;8.90;99.90;;;;;;5075645;28;20434;-35
2023/04/30 05:28:05;;;;;;;8.45;4.13;;;9.00;99.90;;;;;;5075292;28;20020;-37
2023/04/30 05:30:31;;;;;;;5.68;4.07;;;9.00;99.90;;;;;;5075259;28;20031;-34
2023/04/30 05:32:57;;;;;;;11.35;4.80;;;9.00;99.90;;;;;;5075509;28;20025;-38
2023/04/30 05:35:23;;;;;;;11.50;4.07;;;9.10;99.90;;;;;;5075120;28;20046;-35
2023/04/30 05:37:48;;;;;;;6.55;4.45;;;9.10;99.90;;;;;;5075122;28;20074;-39
2023/04/30 05:40:14;;;;;;;5.80;3.85;;;9.20;99.90;;;;;;5075365;28;20099;-39
2023/04/30 05:42:42;;;;;;;8.70;3.60;;;9.30;99.90;;;;;;5074840;28;20047;-36
2023/04/30 05:45:13;;;;;;;8.20;4.47;;;9.30;99.90;;;;;;5056957;28;20055;-41
2023/04/30 05:47:39;;;;;;;5.07;3.55;;;9.40;99.90;;;;;;5075024;28;20390;-40
2023/04/30 05:50:06;;;;;;;5.72;3.58;;;9.40;99.90;;;;;;5074973;28;20052;-39
2023/04/30 05:52:31;;;;;;;5.10;4.10;;;9.50;99.90;;;;;;5074915;28;20028;-40
2023/04/30 05:54:57;;;;;;;6.28;4.22;;;9.60;99.90;;;;;;5074767;28;20473;-36
2023/04/30 05:57:22;;;;;;;8.35;4.20;;;9.60;99.90;;;;;;5073842;28;20469;-39
2023/04/30 05:59:48;;;;;;;11.18;4.18;;;9.70;99.90;;;;;;5074956;28;20024;-34
2023/04/30 06:02:14;;;;;;;7.63;4.15;;;9.80;99.90;;;;;;5074820;28;20017;-38
2023/04/30 06:04:39;;;;;;;16.45;4.10;;;9.90;99.90;;;;;;5074445;28;20085;-41
2023/04/30 06:07:05;;;;;;;7.22;3.83;;;10.00;99.90;;;;;;5074668;28;20024;-38
2023/04/30 06:09:31;;;;;;;4.65;3.65;;;10.00;99.90;;;;;;5072903;28;20032;-38
2023/04/30 06:11:56;;;;;;;6.00;3.55;;;10.10;99.90;;;;;;5074282;28;20036;-38
2023/04/30 06:14:22;;;;;;;11.73;3.88;;;10.30;99.90;;;;;;5074088;28;20036;-38
2023/04/30 06:16:49;;;;;;;5.70;3.00;;;10.40;99.90;;;;;;5074623;28;20059;-37
2023/04/30 06:19:15;;;;;;;7.13;3.88;;;10.50;99.90;;;;;;5074220;28;20487;-40
2023/04/30 06:21:42;;;;;;;6.82;3.28;;;10.50;99.90;;;;;;5074264;28;20017;-40
2023/04/30 06:24:08;;;;;;;6.72;3.40;;;10.60;99.90;;;;;;5074469;28;20021;-38
2023/04/30 06:26:34;;;;;;;7.32;2.95;;;10.80;99.90;;;;;;5074025;28;20500;-37
2023/04/30 06:29:00;;;;;;;5.80;3.08;;;10.80;99.90;;;;;;5074196;28;20029;-36
2023/04/30 06:31:25;;;;;;;7.53;3.10;;;10.90;99.90;;;;;;5074079;28;20077;-39
2023/04/30 06:33:51;;;;;;;9.90;3.60;;;11.10;99.90;;;;;;5074279;28;20402;-40
2023/04/30 06:36:18;;;;;;;7.68;3.60;;;11.20;99.90;;;;;;5073951;28;20397;-40
2023/04/30 06:38:45;;;;;;;6.60;3.22;;;11.30;99.90;;;;;;5073933;28;20024;-38
2023/04/30 06:41:11;;;;;;;6.65;3.08;;;11.40;99.90;;;;;;5073849;28;20027;-36
2023/04/30 06:43:36;;;;;;;7.43;3.97;;;11.50;99.90;;;;;;5073554;28;20100;-39
2023/04/30 06:46:02;;;;;;;5.57;3.53;;;11.50;99.90;;;;;;5073703;28;20051;-39
2023/04/30 06:48:28;;;;;;;4.95;3.20;;;11.60;99.90;;;;;;5073710;28;20100;-39
2023/04/30 06:50:54;;;;;;;4.05;3.00;;;11.70;99.90;;;;;;5073684;28;20539;-40
2023/04/30 06:53:20;;;;;;;8.32;3.30;;;11.70;99.90;;;;;;5073624;28;20024;-38
2023/04/30 06:55:46;;;;;;;6.45;3.65;;;11.80;99.90;;;;;;5073531;28;20476;-35
2023/04/30 06:58:11;;;;;;;10.70;3.28;;;11.90;99.90;;;;;;5073546;28;20028;-36
2023/04/30 07:00:37;;;;;;;5.43;3.45;;;12.10;99.90;;;;;;5073501;28;20072;-35
2023/04/30 07:03:03;;;;;;;6.40;3.35;;;12.20;99.90;;;;;;5073211;28;20385;-41
2023/04/30 07:05:32;;;;;;;5.40;3.22;;;12.40;99.90;;;;;;5073196;28;20056;-37
2023/04/30 07:08:00;;;;;;;4.32;3.45;;;12.40;99.90;;;;;;5073319;28;20473;-39
2023/04/30 07:10:26;;;;;;;5.47;2.92;;;12.50;99.90;;;;;;5073340;28;20511;-36
2023/04/30 07:12:52;;;;;;;5.03;2.88;;;12.50;99.90;;;;;;5073161;28;20055;-35
2023/04/30 07:15:18;;;;;;;4.72;2.95;;;12.60;99.90;;;;;;5073178;28;20039;-39
2023/04/30 07:17:43;;;;;;;4.88;3.20;;;12.70;99.90;;;;;;5073206;28;20465;-37
2023/04/30 07:20:09;;;;;;;7.22;3.33;;;12.90;99.90;;;;;;5073186;28;20024;-38
2023/04/30 07:22:35;;;;;;;5.55;2.47;;;13.10;99.90;;;;;;5072970;28;20031;-37
2023/04/30 07:25:01;;;;;;;4.80;3.15;;;13.10;99.90;;;;;;5072972;28;20032;-38
2023/04/30 07:27:27;;;;;;;7.18;3.03;;;13.20;99.90;;;;;;5073170;28;20056;-38
2023/04/30 07:29:56;;;;;;;4.95;2.40;;;13.30;99.90;;;;;;5072570;28;20020;-36
2023/04/30 07:32:22;;;;;;;3.97;2.95;;;13.40;99.90;;;;;;5073115;28;20024;-38
2023/04/30 07:34:47;;;;;;;5.03;2.67;;;13.50;99.90;;;;;;5072869;28;20115;-37
2023/04/30 07:37:13;;;;;;;6.40;2.65;;;13.50;99.90;;;;;;5073262;28;20418;-38
2023/04/30 07:39:39;;;;;;;3.40;2.53;;;13.60;99.90;;;;;;5072990;28;20389;-38
2023/04/30 07:42:05;;;;;;;4.35;2.58;;;13.80;99.90;;;;;;5072886;28;20027;-36
2023/04/30 07:44:31;;;;;;;6.03;3.15;;;13.90;99.90;;;;;;5071339;28;20417;-36
2023/04/30 07:46:57;;;;;;;3.90;2.53;;;14.00;99.90;;;;;;5072785;28;20024;-38
2023/04/30 07:49:22;;;;;;;3.55;2.88;;;14.00;99.90;;;;;;5072824;28;20032;-37
2023/04/30 07:51:48;;;;;;;3.70;3.33;;;14.10;99.90;;;;;;5073003;28;20028;-33
2023/04/30 07:54:13;;;;;;;3.95;3.33;;;14.30;99.90;;;;;;5072767;28;20021;-35
2023/04/30 07:56:40;;;;;;;5.18;2.80;;;14.40;99.90;;;;;;5072619;28;20036;-39
2023/04/30 07:59:06;;;;;;;4.63;2.67;;;14.50;99.90;;;;;;5072662;28;20035;-39
2023/04/30 08:01:31;;;;;;;6.53;2.13;;;14.50;99.90;;;;;;5072810;28;20052;-37
2023/04/30 08:03:57;;;;;;;5.32;3.28;;;14.60;99.90;;;;;;5072679;28;20460;-37
2023/04/30 08:06:24;;;;;;;7.10;2.83;;;14.60;99.90;;;;;;5072686;28;20044;-38
2023/04/30 08:08:49;;;;;;;4.85;2.90;;;14.40;99.90;;;;;;5072634;28;20202;-36
2023/04/30 08:11:15;;;;;;;12.80;4.10;;;14.40;99.90;;;;;;5072826;28;20543;-36
2023/04/30 08:13:41;;;;;;;5.40;2.67;;;14.60;99.90;;;;;;5072550;28;20103;-39
2023/04/30 08:16:07;;;;;;;4.53;2.38;;;14.70;99.90;;;;;;5072480;28;20111;-33
2023/04/30 08:18:33;;;;;;;4.35;2.45;;;14.70;99.90;;;;;;5072567;28;20520;-36
2023/04/30 08:21:00;;;;;;;4.88;2.60;;;14.90;99.90;;;;;;5072435;28;20017;-36
2023/04/30 08:23:26;;;;;;;8.82;3.35;;;15.10;99.90;;;;;;5072547;28;20024;-37
2023/04/30 08:25:52;;;;;;;6.07;2.72;;;15.00;99.90;;;;;;5072672;28;20504;-36
2023/04/30 08:28:18;;;;;;;8.70;2.58;;;15.00;99.90;;;;;;5072366;28;20028;-35
2023/04/30 08:30:43;;;;;;;3.33;2.70;;;15.10;99.90;;;;;;5072403;28;20025;-36
2023/04/30 08:33:09;;;;;;;4.15;2.47;;;15.20;99.90;;;;;;5072627;28;20025;-39
2023/04/30 08:35:35;;;;;;;7.82;3.05;;;15.30;99.90;;;;;;5072583;28;20033;-36
2023/04/30 08:38:01;;;;;;;4.75;2.75;;;15.30;99.90;;;;;;5072348;28;20508;-38
2023/04/30 08:40:27;;;;;;;6.00;2.80;;;15.40;99.90;;;;;;5072305;28;20074;-36
2023/04/30 08:43:07;;;;;;;3.78;1.65;;;15.60;99.90;;;;;;5074443;28;20393;-33
2023/04/30 08:45:34;;;;;;;8.00;2.45;;;15.90;99.90;;;;;;5075970;28;20036;-35
2023/04/30 08:48:00;;;;;;;4.32;2.25;;;16.30;99.90;;;;;;5076236;28;20032;-39
2023/04/30 08:50:27;;;;;;;2.70;2.03;;;16.50;99.90;;;;;;5076101;28;20481;-38
2023/04/30 08:52:52;;;;;;;3.25;2.15;;;16.80;99.90;;;;;;5075837;28;20020;-38
2023/04/30 08:55:18;;;;;;;2.63;2.20;;;16.60;99.90;;;;;;5075704;28;20043;-38
2023/04/30 08:57:44;;;;;;;2.60;2.38;;;16.70;99.90;;;;;;5075652;28;20028;-38
2023/04/30 09:00:10;;;;;;;5.50;3.55;;;16.70;99.90;;;;;;5075851;28;20499;-33
2023/04/30 09:02:40;;;;;;;4.47;2.90;;;17.10;99.90;;;;;;5075615;28;20024;-35
2023/04/30 09:05:11;;;;;;;6.15;2.85;;;17.40;99.90;;;;;;5075733;28;20043;-36
2023/04/30 09:07:41;;;;;;;3.97;2.33;;;17.20;99.90;;;;;;5075603;28;20063;-38
2023/04/30 09:10:18;;;;;;;3.35;2.45;;;17.20;99.90;;;;;;5075895;28;20035;-42
2023/04/30 09:12:57;;;;;;;6.32;3.15;;;17.80;99.90;;;;;;5075685;28;20040;-43
2023/04/30 09:15:22;;;;;;;4.88;2.35;;;17.90;99.90;;;;;;5074370;28;20039;-40
2023/04/30 09:17:48;;;;;;;3.97;2.67;;;18.20;99.90;;;;;;5075380;28;20021;-41
2023/04/30 09:20:14;;;;;;;4.22;2.05;;;18.40;99.90;;;;;;5074136;28;20387;-42
2023/04/30 09:22:41;;;;;;;4.82;2.15;;;18.50;99.90;;;;;;5075351;28;20035;-42
2023/04/30 09:25:08;;;;;;;8.88;2.20;;;18.90;99.90;;;;;;5075445;28;20033;-41
2023/04/30 09:27:34;;;;;;;3.13;2.08;;;19.10;99.90;;;;;;5075307;28;20040;-39
2023/04/30 09:30:00;;;;;;;2.75;2.25;;;19.50;99.90;;;;;;5075275;28;20043;-41
2023/04/30 09:32:26;;;;;;;2.45;2.25;;;19.50;99.90;;;;;;5075225;28;20082;-42
2023/04/30 09:34:51;;;;;;;3.85;2.40;;;19.60;99.90;;;;;;5075346;28;20024;-43
2023/04/30 09:37:17;;;;;;;2.50;1.90;;;20.10;99.90;;;;;;5075406;28;20384;-41
2023/04/30 09:39:51;;;;;;;2.63;2.30;;;20.60;99.30;;;;;;5075145;28;20479;-44
2023/04/30 09:42:18;;;;;;;1.70;1.60;;;20.80;99.10;;;;;;5075013;28;20074;-41
2023/04/30 09:44:44;;;;;;;3.30;2.20;;;21.00;99.10;;;;;;5074999;28;20127;-42
2023/04/30 09:47:20;;;;;;;3.45;2.33;;;21.40;98.10;;;;;;5074912;28;20048;-47
2023/04/30 09:49:53;;;;;;;3.53;2.70;;;21.60;97.90;;;;;;5073627;28;20020;-41
2023/04/30 09:52:19;;;;;;;2.53;2.33;;;21.60;97.70;;;;;;5074931;28;20051;-42
2023/04/30 09:54:46;;;;;;;2.63;2.42;;;21.70;96.90;;;;;;5074364;28;20081;-44
2023/04/30 09:57:14;;;;;;;3.72;2.67;;;21.40;97.30;;;;;;5074887;28;20477;-42
2023/04/30 09:59:44;;;;;;;1.98;1.77;;;20.90;97.70;;;;;;5074728;28;20020;-41
2023/04/30 10:02:14;;;;;;;3.97;2.40;;;21.00;97.80;;;;;;5074585;28;20029;-51
2023/04/30 10:04:43;;;;;;;4.07;3.03;;;20.60;98.20;;;;;;5074671;28;20016;-42
2023/04/30 10:07:12;;;;;;;2.90;2.60;;;20.50;98.10;;;;;;5074838;28;20016;-39
2023/04/30 10:09:58;;;;;;;4.03;2.30;;;20.10;98.60;;;;;;5074409;28;20469;-42
2023/04/30 10:12:27;;;;;;;2.60;2.35;;;20.10;98.70;;;;;;5074401;28;20024;-42
2023/04/30 10:15:09;;;;;;;9.10;2.78;;;19.80;99.40;;;;;;5074472;28;20114;-42
2023/04/30 10:17:39;;;;;;;5.22;2.63;;;19.50;99.50;;;;;;5074632;28;20028;-42
2023/04/30 10:20:08;;;;;;;5.50;2.25;;;19.30;99.50;;;;;;5074640;28;20210;-42
2023/04/30 10:22:34;;;;;;;2.53;2.20;;;19.40;99.70;;;;;;5074304;28;20393;-43
2023/04/30 10:25:01;;;;;;;2.90;2.23;;;19.60;99.50;;;;;;5074397;28;20536;-47
2023/04/30 10:27:27;;;;;;;2.42;2.22;;;20.00;99.40;;;;;;5074394;28;20484;-40
2023/04/30 10:29:54;;;;;;;6.57;2.05;;;20.40;99.10;;;;;;5074379;28;20518;-42
2023/04/30 10:32:21;;;;;;;2.10;1.90;;;20.60;99.30;;;;;;5074412;28;20473;-44
2023/04/30 10:34:54;;;;;;;2.90;1.83;;;20.70;99.30;;;;;;5074247;28;20029;-42
2023/04/30 10:37:43;;;;;;;4.07;2.30;;;20.60;98.90;;;;;;5074023;28;20477;-43
2023/04/30 10:40:10;;;;;;;8.93;2.70;;;20.60;98.70;;;;;;5073928;28;20024;-42
2023/04/30 10:42:36;;;;;;;4.25;2.58;;;20.50;98.20;;;;;;5073711;28;20027;-42
2023/04/30 10:45:09;;;;;;;3.38;2.20;;;20.50;98.70;;;;;;5072194;28;20040;-44
2023/04/30 10:47:36;;;;;;;6.32;2.72;;;20.30;98.30;;;;;;5073940;28;20521;-44
2023/04/30 10:50:08;;;;;;;2.33;2.13;;;20.10;98.20;;;;;;5073791;28;20048;-42
2023/04/30 10:52:33;;;;;;;3.40;2.00;;;19.90;99.00;;;;;;5073737;28;20028;-44
2023/04/30 10:55:04;;;;;;;2.53;2.03;;;19.60;99.90;;;;;;5073688;28;20358;-43
2023/04/30 10:57:30;;;;;;;2.80;2.10;;;19.60;99.70;;;;;;5073442;28;20538;-41
2023/04/30 11:00:08;;;;;;;4.22;2.22;;;19.70;99.80;;;;;;5073549;28;20025;-43
2023/04/30 11:02:46;;;;;;;4.85;2.60;;;19.80;99.20;;;;;;5073599;28;20036;-44
2023/04/30 11:05:16;;;;;;;4.55;2.42;;;19.90;99.50;;;;;;5072894;28;20553;-44
2023/04/30 11:07:47;;;;;;;4.22;2.38;;;19.70;99.40;;;;;;5073748;28;20393;-41
2023/04/30 11:10:13;;;;;;;2.17;1.67;;;19.00;99.90;;;;;;5073509;28;20537;-42
2023/04/30 11:12:41;;;;;;;2.33;2.13;;;18.80;99.90;;;;;;5073336;28;20025;-43
2023/04/30 11:15:13;;;;;;;3.22;2.22;;;18.90;99.90;;;;;;5071717;28;20101;-42
2023/04/30 11:17:39;;;;;;;5.05;2.17;;;19.00;99.90;;;;;;5073471;28;20411;-44
2023/04/30 11:20:06;;;;;;;5.32;2.03;;;19.10;99.90;;;;;;5073047;28;20108;-43
2023/04/30 11:22:37;;;;;;;2.20;2.00;;;19.00;99.90;;;;;;5073361;28;20377;-43
2023/04/30 11:25:11;;;;;;;2.00;1.80;;;18.90;99.90;;;;;;5073163;28;20052;-43
2023/04/30 11:27:41;;;;;;;3.13;2.53;;;18.70;99.90;;;;;;5073048;28;20032;-42
2023/04/30 11:30:12;;;;;;;2.35;2.05;;;18.90;99.90;;;;;;5072984;28;20020;-44
2023/04/30 11:32:38;;;;;;;2.42;2.00;;;19.20;99.90;;;;;;5072902;28;20025;-42
2023/04/30 11:35:05;;;;;;;10.82;2.33;;;19.30;99.90;;;;;;5073106;28;20103;-40
2023/04/30 11:37:38;;;;;;;2.38;2.05;;;19.50;99.60;;;;;;5073178;28;20340;-42
2023/04/30 11:40:09;;;;;;;4.75;2.13;;;19.30;99.90;;;;;;5072927;28;20100;-41
2023/04/30 11:42:38;;;;;;;4.57;1.90;;;19.20;99.60;;;;;;5073145;28;20016;-44
2023/04/30 11:45:11;;;;;;;3.25;1.73;;;18.80;99.90;;;;;;5072590;28;20044;-42
2023/04/30 11:47:45;;;;;;;2.03;1.77;;;18.70;99.90;;;;;;5072662;28;20404;-40
2023/04/30 11:50:20;;;;;;;1.98;1.60;;;18.70;99.90;;;;;;5072845;28;20446;-43
2023/04/30 11:52:51;;;;;;;2.55;1.45;;;18.80;99.90;;;;;;5073021;28;20465;-41
2023/04/30 11:55:19;;;;;;;2.92;1.92;;;18.80;99.90;;;;;;5072603;28;20132;-40
2023/04/30 11:57:48;;;;;;;10.63;1.83;;;18.80;99.90;;;;;;5072613;28;20016;-41
2023/04/30 12:00:27;;;;;;;3.88;2.50;;;18.80;99.90;;;;;;5072642;28;20036;-41
2023/04/30 12:02:54;;;;;;;3.97;2.03;;;18.80;99.90;;;;;;5072883;28;20535;-45
2023/04/30 12:05:21;;;;;;;4.80;2.33;;;19.00;99.90;;;;;;5072624;28;20024;-42
2023/04/30 12:07:54;;;;;;;3.55;1.90;;;19.40;99.90;;;;;;5072639;28;20060;-44
2023/04/30 12:10:21;;;;;;;3.22;1.90;;;19.50;99.60;;;;;;5072605;28;20024;-42
2023/04/30 12:12:48;;;;;;;2.20;1.50;;;19.30;99.10;;;;;;5072571;28;20028;-42
2023/04/30 12:15:18;;;;;;;5.53;1.73;;;19.10;99.30;;;;;;5072391;28;20127;-43
2023/04/30 12:17:45;;;;;;;2.63;1.50;;;18.70;99.70;;;;;;5076045;28;20017;-42
2023/04/30 12:20:13;;;;;;;1.27;1.17;;;18.40;99.90;;;;;;5076931;28;20016;-42
2023/04/30 12:22:40;;;;;;;1.73;1.63;;;18.60;99.90;;;;;;5076862;28;20024;-42
2023/04/30 12:25:14;;;;;;;1.60;1.37;;;19.20;99.70;;;;;;5076489;28;20029;-41
2023/04/30 12:27:41;;;;;;;1.50;1.30;;;19.60;99.20;;;;;;5076539;28;20016;-43
2023/04/30 12:30:08;;;;;;;2.03;1.13;;;20.10;98.30;;;;;;5074944;28;20032;-41
2023/04/30 12:32:45;;;;;;;;;;;19.90;98.30;;;;;;5076491;28;20158;-44
2023/04/30 12:35:21;;;;;;;1.52;1.20;;;19.60;98.80;;;;;;5076249;28;20364;-42
2023/04/30 12:37:51;;;;;;;3.88;1.70;;;19.30;99.30;;;;;;5076313;28;20025;-45
2023/04/30 12:40:25;;;;;;;1.58;1.17;;;18.80;99.40;;;;;;5075005;28;20499;-43
2023/04/30 12:42:58;;;;;;;2.35;0.98;;;18.50;99.90;;;;;;5076154;28;20027;-43
2023/04/30 12:45:50;;;;;;;1.15;0.80;;;18.50;99.90;;;;;;5075876;28;20593;-43
2023/04/30 12:48:17;;;;;;;1.60;1.50;;;18.70;98.70;;;;;;5076320;28;20532;-40
2023/04/30 12:50:50;;;;;;;1.80;1.13;;;19.20;99.10;;;;;;5076343;28;20040;-42
2023/04/30 12:53:15;;;;;;;0.98;0.90;;;19.70;99.10;;;;;;5076122;28;20503;-39